sensor_id;sensor_type;location;lat;lon;timestamp;P1;durP1;ratioP1;P2;durP2;ratioP2
81378;SDS011;70830;42.290;-71.354;2023-08-06T00:01:17;17.52;;;14.07;;
81378;SDS011;70830;42.290;-71.354;2023-08-06T00:03:46;15.30;;;13.60;;
81378;SDS011;70830;42.290;-71.354;2023-08-06T00:06:12;18.15;;;13.52;;
81378;SDS011;70830;42.290;-71.354;2023-08-06T00:08:38;15.10;;;13.55;;
81378;SDS011;70830;42.290;-71.354;2023-08-06T00:11:04;14.88;;;12.77;;
81378;SDS011;70830;42.290;-71.354;2023-08-06T00:13:30;14.73;;;13.23;;
81378;SDS011;70830;42.290;-71.354;2023-08-06T00:15:56;14.50;;;13.00;;
81378;SDS011;70830;42.290;-71.354;2023-08-06T00:18:33;14.88;;;12.52;;
81378;SDS011;70830;42.290;-71.354;2023-08-06T00:20:58;15.13;;;13.05;;
81378;SDS011;70830;42.290;-71.354;2023-08-06T00:23:24;18.30;;;13.25;;
81378;SDS011;70830;42.290;-71.354;2023-08-06T00:25:50;17.35;;;14.20;;
81378;SDS011;70830;42.290;-71.354;2023-08-06T00:28:16;19.85;;;13.63;;
81378;SDS011;70830;42.290;-71.354;2023-08-06T00:30:42;15.00;;;12.13;;
81378;SDS011;70830;42.290;-71.354;2023-08-06T00:33:08;15.88;;;13.63;;
81378;SDS011;70830;42.290;-71.354;2023-08-06T00:35:34;14.25;;;12.45;;
81378;SDS011;70830;42.290;-71.354;2023-08-06T00:38:01;16.77;;;12.63;;
81378;SDS011;70830;42.290;-71.354;2023-08-06T00:40:28;15.05;;;13.30;;
81378;SDS011;70830;42.290;-71.354;2023-08-06T00:42:55;16.30;;;13.68;;
81378;SDS011;70830;42.290;-71.354;2023-08-06T00:45:21;15.57;;;13.07;;
81378;SDS011;70830;42.290;-71.354;2023-08-06T00:47:48;16.05;;;14.38;;
81378;SDS011;70830;42.290;-71.354;2023-08-06T00:50:14;16.95;;;13.38;;
81378;SDS011;70830;42.290;-71.354;2023-08-06T00:52:41;17.92;;;13.80;;
81378;SDS011;70830;42.290;-71.354;2023-08-06T00:55:07;16.92;;;13.50;;
81378;SDS011;70830;42.290;-71.354;2023-08-06T00:57:33;15.65;;;14.05;;
81378;SDS011;70830;42.290;-71.354;2023-08-06T00:59:59;19.45;;;15.27;;
81378;SDS011;70830;42.290;-71.354;2023-08-06T01:02:26;21.52;;;14.60;;
81378;SDS011;70830;42.290;-71.354;2023-08-06T01:04:54;22.45;;;14.90;;
81378;SDS011;70830;42.290;-71.354;2023-08-06T01:15:19;16.38;;;13.95;;
81378;SDS011;70830;42.290;-71.354;2023-08-06T01:17:53;18.90;;;14.15;;
81378;SDS011;70830;42.290;-71.354;2023-08-06T01:20:19;16.75;;;14.13;;
81378;SDS011;70830;42.290;-71.354;2023-08-06T01:22:45;17.73;;;14.07;;
81378;SDS011;70830;42.290;-71.354;2023-08-06T01:25:12;15.95;;;14.10;;
81378;SDS011;70830;42.290;-71.354;2023-08-06T01:27:46;16.35;;;13.48;;
81378;SDS011;70830;42.290;-71.354;2023-08-06T01:30:20;14.98;;;12.88;;
81378;SDS011;70830;42.290;-71.354;2023-08-06T01:32:49;17.85;;;13.70;;
81378;SDS011;70830;42.290;-71.354;2023-08-06T01:35:19;14.38;;;12.88;;
81378;SDS011;70830;42.290;-71.354;2023-08-06T01:37:46;16.88;;;13.00;;
81378;SDS011;70830;42.290;-71.354;2023-08-06T01:40:13;16.73;;;12.32;;
81378;SDS011;70830;42.290;-71.354;2023-08-06T01:42:39;14.15;;;12.55;;
81378;SDS011;70830;42.290;-71.354;2023-08-06T01:45:08;14.20;;;12.48;;
81378;SDS011;70830;42.290;-71.354;2023-08-06T01:47:35;17.80;;;12.77;;
81378;SDS011;70830;42.290;-71.354;2023-08-06T01:50:02;18.33;;;12.70;;
81378;SDS011;70830;42.290;-71.354;2023-08-06T01:52:28;13.70;;;11.82;;
81378;SDS011;70830;42.290;-71.354;2023-08-06T01:54:54;14.95;;;12.52;;
81378;SDS011;70830;42.290;-71.354;2023-08-06T01:57:21;12.68;;;11.05;;
81378;SDS011;70830;42.290;-71.354;2023-08-06T01:59:47;13.60;;;11.98;;
81378;SDS011;70830;42.290;-71.354;2023-08-06T02:02:13;13.38;;;11.98;;
81378;SDS011;70830;42.290;-71.354;2023-08-06T02:04:39;15.98;;;11.70;;
81378;SDS011;70830;42.290;-71.354;2023-08-06T02:07:05;16.25;;;11.90;;
81378;SDS011;70830;42.290;-71.354;2023-08-06T02:09:31;13.00;;;11.05;;
81378;SDS011;70830;42.290;-71.354;2023-08-06T02:11:57;13.35;;;11.95;;
81378;SDS011;70830;42.290;-71.354;2023-08-06T02:14:23;14.60;;;11.93;;
81378;SDS011;70830;42.290;-71.354;2023-08-06T02:16:48;13.60;;;11.48;;
81378;SDS011;70830;42.290;-71.354;2023-08-06T02:19:16;17.05;;;12.88;;
81378;SDS011;70830;42.290;-71.354;2023-08-06T02:21:42;16.33;;;12.68;;
81378;SDS011;70830;42.290;-71.354;2023-08-06T02:24:10;17.27;;;12.02;;
81378;SDS011;70830;42.290;-71.354;2023-08-06T02:26:36;15.95;;;12.40;;
81378;SDS011;70830;42.290;-71.354;2023-08-06T02:29:02;14.13;;;11.70;;
81378;SDS011;70830;42.290;-71.354;2023-08-06T02:31:28;14.38;;;11.68;;
81378;SDS011;70830;42.290;-71.354;2023-08-06T02:33:54;14.55;;;11.65;;
81378;SDS011;70830;42.290;-71.354;2023-08-06T02:36:20;15.85;;;12.40;;
81378;SDS011;70830;42.290;-71.354;2023-08-06T02:38:46;14.45;;;12.02;;
81378;SDS011;70830;42.290;-71.354;2023-08-06T02:41:12;13.20;;;11.57;;
81378;SDS011;70830;42.290;-71.354;2023-08-06T02:43:38;13.45;;;11.88;;
81378;SDS011;70830;42.290;-71.354;2023-08-06T02:46:04;14.32;;;11.48;;
81378;SDS011;70830;42.290;-71.354;2023-08-06T02:48:30;13.90;;;11.48;;
81378;SDS011;70830;42.290;-71.354;2023-08-06T02:50:59;11.93;;;10.32;;
81378;SDS011;70830;42.290;-71.354;2023-08-06T02:53:25;14.68;;;11.73;;
81378;SDS011;70830;42.290;-71.354;2023-08-06T02:55:51;15.90;;;11.88;;
81378;SDS011;70830;42.290;-71.354;2023-08-06T02:58:18;14.98;;;11.07;;
81378;SDS011;70830;42.290;-71.354;2023-08-06T03:00:58;14.18;;;10.77;;
81378;SDS011;70830;42.290;-71.354;2023-08-06T03:03:29;16.40;;;11.60;;
81378;SDS011;70830;42.290;-71.354;2023-08-06T03:05:56;14.63;;;10.63;;
81378;SDS011;70830;42.290;-71.354;2023-08-06T03:08:22;14.70;;;11.35;;
81378;SDS011;70830;42.290;-71.354;2023-08-06T03:10:48;14.48;;;10.98;;
81378;SDS011;70830;42.290;-71.354;2023-08-06T03:13:15;17.33;;;13.00;;
81378;SDS011;70830;42.290;-71.354;2023-08-06T03:15:52;12.57;;;10.75;;
81378;SDS011;70830;42.290;-71.354;2023-08-06T03:18:21;15.48;;;11.20;;
81378;SDS011;70830;42.290;-71.354;2023-08-06T03:20:47;13.73;;;10.85;;
81378;SDS011;70830;42.290;-71.354;2023-08-06T03:23:14;12.52;;;10.82;;
81378;SDS011;70830;42.290;-71.354;2023-08-06T03:25:40;12.32;;;10.43;;
81378;SDS011;70830;42.290;-71.354;2023-08-06T03:28:06;12.52;;;10.80;;
81378;SDS011;70830;42.290;-71.354;2023-08-06T03:30:32;14.30;;;9.98;;
81378;SDS011;70830;42.290;-71.354;2023-08-06T03:32:57;14.60;;;11.52;;
81378;SDS011;70830;42.290;-71.354;2023-08-06T03:35:23;12.50;;;10.88;;
81378;SDS011;70830;42.290;-71.354;2023-08-06T03:37:49;14.43;;;10.82;;
81378;SDS011;70830;42.290;-71.354;2023-08-06T03:40:15;13.15;;;10.63;;
81378;SDS011;70830;42.290;-71.354;2023-08-06T03:42:41;12.05;;;10.10;;
81378;SDS011;70830;42.290;-71.354;2023-08-06T03:45:07;17.58;;;10.50;;
81378;SDS011;70830;42.290;-71.354;2023-08-06T03:47:34;12.93;;;10.57;;
81378;SDS011;70830;42.290;-71.354;2023-08-06T03:50:00;17.23;;;10.48;;
81378;SDS011;70830;42.290;-71.354;2023-08-06T03:52:26;13.20;;;10.45;;
81378;SDS011;70830;42.290;-71.354;2023-08-06T03:54:51;12.43;;;10.52;;
81378;SDS011;70830;42.290;-71.354;2023-08-06T03:57:18;14.40;;;10.73;;
81378;SDS011;70830;42.290;-71.354;2023-08-06T03:59:43;15.75;;;11.63;;
81378;SDS011;70830;42.290;-71.354;2023-08-06T04:02:09;12.95;;;10.07;;
81378;SDS011;70830;42.290;-71.354;2023-08-06T04:04:38;16.73;;;10.48;;
81378;SDS011;70830;42.290;-71.354;2023-08-06T04:07:04;15.25;;;11.60;;
81378;SDS011;70830;42.290;-71.354;2023-08-06T04:09:31;15.07;;;10.82;;
81378;SDS011;70830;42.290;-71.354;2023-08-06T04:11:56;13.38;;;10.65;;
81378;SDS011;70830;42.290;-71.354;2023-08-06T04:14:23;13.32;;;10.20;;
81378;SDS011;70830;42.290;-71.354;2023-08-06T04:16:51;15.10;;;11.35;;
81378;SDS011;70830;42.290;-71.354;2023-08-06T04:19:17;12.05;;;10.13;;
81378;SDS011;70830;42.290;-71.354;2023-08-06T04:21:43;15.68;;;11.32;;
81378;SDS011;70830;42.290;-71.354;2023-08-06T04:24:09;15.55;;;10.98;;
81378;SDS011;70830;42.290;-71.354;2023-08-06T04:26:35;13.52;;;10.52;;
81378;SDS011;70830;42.290;-71.354;2023-08-06T04:29:01;13.88;;;11.25;;
81378;SDS011;70830;42.290;-71.354;2023-08-06T04:31:26;15.90;;;11.55;;
81378;SDS011;70830;42.290;-71.354;2023-08-06T04:33:54;12.95;;;10.65;;
81378;SDS011;70830;42.290;-71.354;2023-08-06T04:36:20;14.18;;;10.98;;
81378;SDS011;70830;42.290;-71.354;2023-08-06T04:38:46;16.13;;;11.27;;
81378;SDS011;70830;42.290;-71.354;2023-08-06T04:41:12;13.25;;;10.93;;
81378;SDS011;70830;42.290;-71.354;2023-08-06T04:43:38;12.95;;;10.95;;
81378;SDS011;70830;42.290;-71.354;2023-08-06T04:46:05;14.95;;;11.13;;
81378;SDS011;70830;42.290;-71.354;2023-08-06T04:48:31;14.18;;;11.60;;
81378;SDS011;70830;42.290;-71.354;2023-08-06T04:50:57;16.65;;;11.68;;
81378;SDS011;70830;42.290;-71.354;2023-08-06T04:53:23;16.50;;;11.55;;
81378;SDS011;70830;42.290;-71.354;2023-08-06T04:55:49;15.63;;;11.18;;
81378;SDS011;70830;42.290;-71.354;2023-08-06T04:58:15;14.20;;;10.45;;
81378;SDS011;70830;42.290;-71.354;2023-08-06T05:00:40;13.05;;;10.77;;
81378;SDS011;70830;42.290;-71.354;2023-08-06T05:03:07;14.50;;;10.98;;
81378;SDS011;70830;42.290;-71.354;2023-08-06T05:05:33;17.60;;;10.85;;
81378;SDS011;70830;42.290;-71.354;2023-08-06T05:07:59;14.73;;;10.48;;
81378;SDS011;70830;42.290;-71.354;2023-08-06T05:10:25;14.30;;;11.02;;
81378;SDS011;70830;42.290;-71.354;2023-08-06T05:12:51;12.93;;;10.48;;
81378;SDS011;70830;42.290;-71.354;2023-08-06T05:15:17;15.25;;;11.38;;
81378;SDS011;70830;42.290;-71.354;2023-08-06T05:17:43;12.35;;;10.75;;
81378;SDS011;70830;42.290;-71.354;2023-08-06T05:20:09;15.57;;;11.05;;
81378;SDS011;70830;42.290;-71.354;2023-08-06T05:22:36;14.75;;;11.55;;
81378;SDS011;70830;42.290;-71.354;2023-08-06T05:25:02;16.13;;;11.25;;
81378;SDS011;70830;42.290;-71.354;2023-08-06T05:27:28;15.27;;;11.32;;
81378;SDS011;70830;42.290;-71.354;2023-08-06T05:29:57;15.98;;;10.98;;
81378;SDS011;70830;42.290;-71.354;2023-08-06T05:32:23;18.75;;;11.45;;
81378;SDS011;70830;42.290;-71.354;2023-08-06T05:34:49;15.90;;;11.52;;
81378;SDS011;70830;42.290;-71.354;2023-08-06T05:37:15;13.07;;;11.25;;
81378;SDS011;70830;42.290;-71.354;2023-08-06T05:39:41;13.57;;;10.00;;
81378;SDS011;70830;42.290;-71.354;2023-08-06T05:42:07;13.57;;;10.82;;
81378;SDS011;70830;42.290;-71.354;2023-08-06T05:44:34;12.48;;;10.40;;
81378;SDS011;70830;42.290;-71.354;2023-08-06T05:47:00;13.38;;;10.15;;
81378;SDS011;70830;42.290;-71.354;2023-08-06T05:49:26;13.73;;;11.25;;
81378;SDS011;70830;42.290;-71.354;2023-08-06T05:51:51;13.25;;;10.98;;
81378;SDS011;70830;42.290;-71.354;2023-08-06T05:54:18;13.68;;;10.68;;
81378;SDS011;70830;42.290;-71.354;2023-08-06T05:56:46;15.25;;;10.75;;
81378;SDS011;70830;42.290;-71.354;2023-08-06T05:59:12;15.15;;;10.57;;
81378;SDS011;70830;42.290;-71.354;2023-08-06T06:01:38;13.10;;;10.52;;
81378;SDS011;70830;42.290;-71.354;2023-08-06T06:04:04;13.93;;;11.18;;
81378;SDS011;70830;42.290;-71.354;2023-08-06T06:06:30;14.68;;;11.05;;
81378;SDS011;70830;42.290;-71.354;2023-08-06T06:08:56;14.88;;;10.10;;
81378;SDS011;70830;42.290;-71.354;2023-08-06T06:11:22;15.45;;;11.05;;
81378;SDS011;70830;42.290;-71.354;2023-08-06T06:13:49;11.80;;;10.05;;
81378;SDS011;70830;42.290;-71.354;2023-08-06T06:16:16;14.98;;;10.68;;
81378;SDS011;70830;42.290;-71.354;2023-08-06T06:18:42;16.17;;;11.93;;
81378;SDS011;70830;42.290;-71.354;2023-08-06T06:21:08;14.27;;;10.50;;
81378;SDS011;70830;42.290;-71.354;2023-08-06T06:23:34;13.23;;;10.68;;
81378;SDS011;70830;42.290;-71.354;2023-08-06T06:26:00;14.25;;;10.60;;
81378;SDS011;70830;42.290;-71.354;2023-08-06T06:28:26;14.43;;;10.77;;
81378;SDS011;70830;42.290;-71.354;2023-08-06T06:30:52;13.45;;;10.60;;
81378;SDS011;70830;42.290;-71.354;2023-08-06T06:33:18;14.60;;;10.90;;
81378;SDS011;70830;42.290;-71.354;2023-08-06T06:35:44;16.27;;;10.90;;
81378;SDS011;70830;42.290;-71.354;2023-08-06T06:38:10;17.02;;;11.15;;
81378;SDS011;70830;42.290;-71.354;2023-08-06T06:40:36;16.83;;;10.93;;
81378;SDS011;70830;42.290;-71.354;2023-08-06T06:43:02;13.55;;;10.90;;
81378;SDS011;70830;42.290;-71.354;2023-08-06T06:45:28;16.52;;;11.52;;
81378;SDS011;70830;42.290;-71.354;2023-08-06T06:47:54;14.18;;;10.88;;
81378;SDS011;70830;42.290;-71.354;2023-08-06T06:50:20;15.00;;;10.77;;
81378;SDS011;70830;42.290;-71.354;2023-08-06T06:52:46;14.27;;;10.63;;
81378;SDS011;70830;42.290;-71.354;2023-08-06T06:55:12;15.32;;;12.15;;
81378;SDS011;70830;42.290;-71.354;2023-08-06T06:57:38;12.75;;;11.25;;
81378;SDS011;70830;42.290;-71.354;2023-08-06T07:00:04;13.32;;;11.05;;
81378;SDS011;70830;42.290;-71.354;2023-08-06T07:02:30;13.90;;;11.52;;
81378;SDS011;70830;42.290;-71.354;2023-08-06T07:04:56;14.60;;;11.50;;
81378;SDS011;70830;42.290;-71.354;2023-08-06T07:07:22;15.57;;;11.32;;
81378;SDS011;70830;42.290;-71.354;2023-08-06T07:09:48;14.90;;;11.55;;
81378;SDS011;70830;42.290;-71.354;2023-08-06T07:12:14;15.68;;;11.80;;
81378;SDS011;70830;42.290;-71.354;2023-08-06T07:14:40;16.05;;;11.57;;
81378;SDS011;70830;42.290;-71.354;2023-08-06T07:17:06;15.20;;;11.25;;
81378;SDS011;70830;42.290;-71.354;2023-08-06T07:19:31;13.45;;;10.65;;
81378;SDS011;70830;42.290;-71.354;2023-08-06T07:21:57;14.48;;;10.98;;
81378;SDS011;70830;42.290;-71.354;2023-08-06T07:24:23;14.45;;;11.50;;
81378;SDS011;70830;42.290;-71.354;2023-08-06T07:26:49;15.32;;;11.45;;
81378;SDS011;70830;42.290;-71.354;2023-08-06T07:29:15;14.32;;;11.43;;
81378;SDS011;70830;42.290;-71.354;2023-08-06T07:31:46;17.95;;;10.93;;
81378;SDS011;70830;42.290;-71.354;2023-08-06T07:34:12;13.60;;;10.80;;
81378;SDS011;70830;42.290;-71.354;2023-08-06T07:36:38;15.55;;;11.25;;
81378;SDS011;70830;42.290;-71.354;2023-08-06T07:39:04;13.98;;;10.48;;
81378;SDS011;70830;42.290;-71.354;2023-08-06T07:41:31;12.90;;;10.93;;
81378;SDS011;70830;42.290;-71.354;2023-08-06T07:43:57;18.08;;;11.57;;
81378;SDS011;70830;42.290;-71.354;2023-08-06T07:46:23;14.00;;;12.13;;
81378;SDS011;70830;42.290;-71.354;2023-08-06T07:48:49;14.15;;;10.63;;
81378;SDS011;70830;42.290;-71.354;2023-08-06T07:51:15;12.52;;;10.45;;
81378;SDS011;70830;42.290;-71.354;2023-08-06T07:53:41;13.38;;;10.55;;
81378;SDS011;70830;42.290;-71.354;2023-08-06T07:56:07;14.68;;;11.80;;
81378;SDS011;70830;42.290;-71.354;2023-08-06T07:58:33;12.70;;;10.73;;
81378;SDS011;70830;42.290;-71.354;2023-08-06T08:00:59;12.80;;;9.85;;
81378;SDS011;70830;42.290;-71.354;2023-08-06T08:03:25;14.70;;;11.63;;
81378;SDS011;70830;42.290;-71.354;2023-08-06T08:05:54;11.90;;;9.90;;
81378;SDS011;70830;42.290;-71.354;2023-08-06T08:08:23;13.75;;;11.45;;
81378;SDS011;70830;42.290;-71.354;2023-08-06T08:10:49;14.70;;;11.43;;
81378;SDS011;70830;42.290;-71.354;2023-08-06T08:13:15;14.15;;;10.77;;
81378;SDS011;70830;42.290;-71.354;2023-08-06T08:15:41;13.75;;;10.93;;
81378;SDS011;70830;42.290;-71.354;2023-08-06T08:18:07;13.55;;;10.80;;
81378;SDS011;70830;42.290;-71.354;2023-08-06T08:20:33;15.20;;;11.80;;
81378;SDS011;70830;42.290;-71.354;2023-08-06T08:23:00;12.10;;;10.68;;
81378;SDS011;70830;42.290;-71.354;2023-08-06T08:25:27;15.43;;;11.48;;
81378;SDS011;70830;42.290;-71.354;2023-08-06T08:27:53;13.88;;;11.25;;
81378;SDS011;70830;42.290;-71.354;2023-08-06T08:30:20;14.63;;;10.30;;
81378;SDS011;70830;42.290;-71.354;2023-08-06T08:32:47;14.40;;;11.60;;
81378;SDS011;70830;42.290;-71.354;2023-08-06T08:35:14;12.60;;;10.85;;
81378;SDS011;70830;42.290;-71.354;2023-08-06T08:37:41;13.68;;;10.45;;
81378;SDS011;70830;42.290;-71.354;2023-08-06T08:40:08;16.83;;;11.05;;
81378;SDS011;70830;42.290;-71.354;2023-08-06T08:42:39;15.57;;;11.13;;
81378;SDS011;70830;42.290;-71.354;2023-08-06T08:45:05;13.25;;;11.38;;
81378;SDS011;70830;42.290;-71.354;2023-08-06T08:47:39;15.07;;;11.50;;
81378;SDS011;70830;42.290;-71.354;2023-08-06T08:50:09;14.85;;;12.40;;
81378;SDS011;70830;42.290;-71.354;2023-08-06T08:52:36;14.43;;;11.48;;
81378;SDS011;70830;42.290;-71.354;2023-08-06T08:55:04;13.75;;;10.13;;
81378;SDS011;70830;42.290;-71.354;2023-08-06T08:57:32;14.75;;;10.38;;
81378;SDS011;70830;42.290;-71.354;2023-08-06T08:59:58;15.60;;;11.55;;
81378;SDS011;70830;42.290;-71.354;2023-08-06T09:02:24;16.35;;;10.77;;
81378;SDS011;70830;42.290;-71.354;2023-08-06T09:04:55;13.52;;;10.80;;
81378;SDS011;70830;42.290;-71.354;2023-08-06T09:09:54;13.65;;;9.98;;
81378;SDS011;70830;42.290;-71.354;2023-08-06T09:12:22;14.48;;;11.23;;
81378;SDS011;70830;42.290;-71.354;2023-08-06T09:14:48;15.73;;;10.93;;
81378;SDS011;70830;42.290;-71.354;2023-08-06T09:17:14;14.35;;;10.88;;
81378;SDS011;70830;42.290;-71.354;2023-08-06T09:19:44;13.13;;;10.48;;
81378;SDS011;70830;42.290;-71.354;2023-08-06T09:22:12;15.32;;;11.38;;
81378;SDS011;70830;42.290;-71.354;2023-08-06T09:24:39;12.93;;;10.00;;
81378;SDS011;70830;42.290;-71.354;2023-08-06T09:27:10;13.25;;;9.50;;
81378;SDS011;70830;42.290;-71.354;2023-08-06T09:32:06;12.35;;;10.77;;
81378;SDS011;70830;42.290;-71.354;2023-08-06T09:34:31;13.90;;;10.15;;
81378;SDS011;70830;42.290;-71.354;2023-08-06T09:36:57;16.10;;;9.70;;
81378;SDS011;70830;42.290;-71.354;2023-08-06T09:39:27;12.10;;;10.35;;
81378;SDS011;70830;42.290;-71.354;2023-08-06T09:41:58;15.60;;;11.05;;
81378;SDS011;70830;42.290;-71.354;2023-08-06T09:44:27;13.95;;;10.88;;
81378;SDS011;70830;42.290;-71.354;2023-08-06T09:46:54;14.32;;;11.18;;
81378;SDS011;70830;42.290;-71.354;2023-08-06T09:49:24;16.65;;;11.15;;
81378;SDS011;70830;42.290;-71.354;2023-08-06T09:51:52;13.40;;;10.77;;
81378;SDS011;70830;42.290;-71.354;2023-08-06T09:54:24;15.70;;;11.50;;
81378;SDS011;70830;42.290;-71.354;2023-08-06T09:56:52;14.02;;;10.80;;
81378;SDS011;70830;42.290;-71.354;2023-08-06T09:59:19;13.10;;;10.55;;
81378;SDS011;70830;42.290;-71.354;2023-08-06T10:01:45;13.60;;;9.98;;
81378;SDS011;70830;42.290;-71.354;2023-08-06T10:04:12;13.05;;;10.30;;
81378;SDS011;70830;42.290;-71.354;2023-08-06T10:06:41;18.25;;;11.07;;
81378;SDS011;70830;42.290;-71.354;2023-08-06T10:09:08;12.80;;;10.20;;
81378;SDS011;70830;42.290;-71.354;2023-08-06T10:11:36;13.60;;;11.05;;
81378;SDS011;70830;42.290;-71.354;2023-08-06T10:16:34;13.10;;;10.73;;
81378;SDS011;70830;42.290;-71.354;2023-08-06T10:19:02;16.55;;;11.98;;
81378;SDS011;70830;42.290;-71.354;2023-08-06T10:21:30;13.73;;;10.57;;
81378;SDS011;70830;42.290;-71.354;2023-08-06T10:23:57;13.50;;;11.05;;
81378;SDS011;70830;42.290;-71.354;2023-08-06T10:26:27;14.23;;;10.55;;
81378;SDS011;70830;42.290;-71.354;2023-08-06T10:28:53;14.13;;;10.75;;
81378;SDS011;70830;42.290;-71.354;2023-08-06T10:31:20;14.13;;;11.50;;
81378;SDS011;70830;42.290;-71.354;2023-08-06T10:34:05;14.98;;;10.75;;
81378;SDS011;70830;42.290;-71.354;2023-08-06T10:36:32;13.52;;;10.45;;
81378;SDS011;70830;42.290;-71.354;2023-08-06T10:38:58;11.65;;;9.75;;
81378;SDS011;70830;42.290;-71.354;2023-08-06T10:41:28;14.05;;;10.80;;
81378;SDS011;70830;42.290;-71.354;2023-08-06T10:44:07;13.50;;;10.60;;
81378;SDS011;70830;42.290;-71.354;2023-08-06T10:46:34;14.80;;;9.98;;
81378;SDS011;70830;42.290;-71.354;2023-08-06T10:49:01;14.82;;;10.00;;
81378;SDS011;70830;42.290;-71.354;2023-08-06T10:51:28;14.35;;;10.98;;
81378;SDS011;70830;42.290;-71.354;2023-08-06T10:53:55;14.48;;;10.07;;
81378;SDS011;70830;42.290;-71.354;2023-08-06T10:56:25;13.18;;;9.40;;
81378;SDS011;70830;42.290;-71.354;2023-08-06T10:58:55;13.20;;;10.25;;
81378;SDS011;70830;42.290;-71.354;2023-08-06T11:01:22;12.65;;;10.05;;
81378;SDS011;70830;42.290;-71.354;2023-08-06T11:03:50;11.80;;;9.25;;
81378;SDS011;70830;42.290;-71.354;2023-08-06T11:06:18;13.35;;;8.80;;
81378;SDS011;70830;42.290;-71.354;2023-08-06T11:08:49;11.13;;;9.63;;
81378;SDS011;70830;42.290;-71.354;2023-08-06T11:11:16;12.75;;;8.85;;
81378;SDS011;70830;42.290;-71.354;2023-08-06T11:13:43;13.73;;;9.18;;
81378;SDS011;70830;42.290;-71.354;2023-08-06T11:16:12;10.35;;;9.07;;
81378;SDS011;70830;42.290;-71.354;2023-08-06T11:18:41;13.05;;;8.02;;
81378;SDS011;70830;42.290;-71.354;2023-08-06T11:21:08;9.60;;;8.18;;
81378;SDS011;70830;42.290;-71.354;2023-08-06T11:23:35;14.30;;;8.88;;
81378;SDS011;70830;42.290;-71.354;2023-08-06T11:26:01;11.15;;;8.32;;
81378;SDS011;70830;42.290;-71.354;2023-08-06T11:28:28;11.57;;;8.20;;
81378;SDS011;70830;42.290;-71.354;2023-08-06T11:30:54;10.07;;;8.95;;
81378;SDS011;70830;42.290;-71.354;2023-08-06T11:33:26;10.45;;;8.23;;
81378;SDS011;70830;42.290;-71.354;2023-08-06T11:35:56;10.90;;;8.00;;
81378;SDS011;70830;42.290;-71.354;2023-08-06T11:38:29;11.30;;;8.55;;
81378;SDS011;70830;42.290;-71.354;2023-08-06T11:40:55;8.90;;;8.00;;
81378;SDS011;70830;42.290;-71.354;2023-08-06T11:43:22;10.35;;;7.50;;
81378;SDS011;70830;42.290;-71.354;2023-08-06T11:45:48;9.30;;;7.07;;
81378;SDS011;70830;42.290;-71.354;2023-08-06T11:48:16;9.75;;;7.40;;
81378;SDS011;70830;42.290;-71.354;2023-08-06T11:50:43;9.07;;;6.68;;
81378;SDS011;70830;42.290;-71.354;2023-08-06T11:53:11;9.55;;;6.60;;
81378;SDS011;70830;42.290;-71.354;2023-08-06T11:55:38;10.40;;;8.07;;
81378;SDS011;70830;42.290;-71.354;2023-08-06T11:58:04;8.80;;;7.63;;
81378;SDS011;70830;42.290;-71.354;2023-08-06T12:00:30;9.40;;;7.35;;
81378;SDS011;70830;42.290;-71.354;2023-08-06T12:02:56;8.35;;;7.38;;
81378;SDS011;70830;42.290;-71.354;2023-08-06T12:05:23;8.52;;;7.25;;
81378;SDS011;70830;42.290;-71.354;2023-08-06T12:07:56;10.05;;;9.02;;
81378;SDS011;70830;42.290;-71.354;2023-08-06T12:10:24;8.60;;;7.75;;
81378;SDS011;70830;42.290;-71.354;2023-08-06T12:12:51;11.52;;;8.82;;
81378;SDS011;70830;42.290;-71.354;2023-08-06T12:15:17;8.48;;;7.55;;
81378;SDS011;70830;42.290;-71.354;2023-08-06T12:17:43;8.77;;;6.80;;
81378;SDS011;70830;42.290;-71.354;2023-08-06T12:20:09;10.48;;;9.23;;
81378;SDS011;70830;42.290;-71.354;2023-08-06T12:22:36;10.05;;;9.05;;
81378;SDS011;70830;42.290;-71.354;2023-08-06T12:27:36;8.93;;;8.05;;
81378;SDS011;70830;42.290;-71.354;2023-08-06T12:30:06;8.35;;;7.55;;
81378;SDS011;70830;42.290;-71.354;2023-08-06T12:32:33;7.38;;;6.68;;
81378;SDS011;70830;42.290;-71.354;2023-08-06T12:34:59;7.43;;;5.50;;
81378;SDS011;70830;42.290;-71.354;2023-08-06T12:37:26;9.60;;;8.70;;
81378;SDS011;70830;42.290;-71.354;2023-08-06T12:39:52;6.65;;;5.95;;
81378;SDS011;70830;42.290;-71.354;2023-08-06T12:42:18;8.13;;;6.25;;
81378;SDS011;70830;42.290;-71.354;2023-08-06T12:44:44;9.43;;;7.00;;
81378;SDS011;70830;42.290;-71.354;2023-08-06T12:47:10;8.43;;;7.63;;
81378;SDS011;70830;42.290;-71.354;2023-08-06T12:49:36;8.57;;;7.38;;
81378;SDS011;70830;42.290;-71.354;2023-08-06T12:52:02;7.85;;;7.07;;
81378;SDS011;70830;42.290;-71.354;2023-08-06T12:54:31;10.30;;;9.27;;
81378;SDS011;70830;42.290;-71.354;2023-08-06T12:57:02;8.38;;;7.63;;
81378;SDS011;70830;42.290;-71.354;2023-08-06T12:59:29;10.68;;;8.27;;
81378;SDS011;70830;42.290;-71.354;2023-08-06T13:01:55;8.77;;;7.97;;
81378;SDS011;70830;42.290;-71.354;2023-08-06T13:04:21;10.13;;;9.13;;
81378;SDS011;70830;42.290;-71.354;2023-08-06T13:06:47;7.60;;;6.90;;
81378;SDS011;70830;42.290;-71.354;2023-08-06T13:09:13;9.13;;;8.32;;
81378;SDS011;70830;42.290;-71.354;2023-08-06T13:11:40;10.00;;;7.40;;
81378;SDS011;70830;42.290;-71.354;2023-08-06T13:14:11;6.72;;;5.88;;
81378;SDS011;70830;42.290;-71.354;2023-08-06T13:16:39;9.00;;;6.97;;
81378;SDS011;70830;42.290;-71.354;2023-08-06T13:19:06;6.80;;;5.43;;
81378;SDS011;70830;42.290;-71.354;2023-08-06T13:24:00;9.45;;;8.65;;
81378;SDS011;70830;42.290;-71.354;2023-08-06T13:26:30;8.23;;;7.53;;
81378;SDS011;70830;42.290;-71.354;2023-08-06T13:28:57;7.97;;;7.28;;
81378;SDS011;70830;42.290;-71.354;2023-08-06T13:31:24;8.82;;;7.32;;
81378;SDS011;70830;42.290;-71.354;2023-08-06T13:33:51;7.95;;;7.25;;
81378;SDS011;70830;42.290;-71.354;2023-08-06T13:36:19;11.82;;;8.05;;
81378;SDS011;70830;42.290;-71.354;2023-08-06T13:38:45;9.23;;;8.25;;
81378;SDS011;70830;42.290;-71.354;2023-08-06T13:41:11;8.05;;;7.40;;
81378;SDS011;70830;42.290;-71.354;2023-08-06T13:43:38;8.13;;;7.43;;
81378;SDS011;70830;42.290;-71.354;2023-08-06T13:46:05;9.15;;;8.40;;
81378;SDS011;70830;42.290;-71.354;2023-08-06T13:48:30;5.85;;;5.22;;
81378;SDS011;70830;42.290;-71.354;2023-08-06T13:50:56;7.30;;;6.53;;
81378;SDS011;70830;42.290;-71.354;2023-08-06T13:53:22;5.35;;;4.82;;
81378;SDS011;70830;42.290;-71.354;2023-08-06T13:55:48;8.20;;;5.35;;
81378;SDS011;70830;42.290;-71.354;2023-08-06T13:58:14;7.72;;;7.03;;
81378;SDS011;70830;42.290;-71.354;2023-08-06T14:00:43;6.18;;;5.38;;
81378;SDS011;70830;42.290;-71.354;2023-08-06T14:03:09;5.28;;;4.78;;
81378;SDS011;70830;42.290;-71.354;2023-08-06T14:05:35;7.35;;;6.75;;
81378;SDS011;70830;42.290;-71.354;2023-08-06T14:08:01;8.48;;;7.78;;
81378;SDS011;70830;42.290;-71.354;2023-08-06T14:10:27;8.10;;;6.53;;
81378;SDS011;70830;42.290;-71.354;2023-08-06T14:12:53;6.97;;;6.28;;
81378;SDS011;70830;42.290;-71.354;2023-08-06T14:15:19;7.47;;;6.78;;
81378;SDS011;70830;42.290;-71.354;2023-08-06T14:17:45;7.65;;;5.15;;
81378;SDS011;70830;42.290;-71.354;2023-08-06T14:20:11;8.05;;;6.65;;